sensor_id;sensor_type;location;lat;lon;timestamp;temperature;humidity
1307;DHT22;646;48.696;9.114;2022-09-20T00:03:35;6.90;99.90
1307;DHT22;646;48.696;9.114;2022-09-20T00:06:03;7.00;99.90
1307;DHT22;646;48.696;9.114;2022-09-20T00:08:30;7.10;99.90
1307;DHT22;646;48.696;9.114;2022-09-20T00:11:07;7.10;99.90
1307;DHT22;646;48.696;9.114;2022-09-20T00:13:34;7.30;99.90
1307;DHT22;646;48.696;9.114;2022-09-20T00:16:07;7.20;99.90
1307;DHT22;646;48.696;9.114;2022-09-20T00:18:33;7.30;99.90
1307;DHT22;646;48.696;9.114;2022-09-20T00:20:59;7.30;99.90
1307;DHT22;646;48.696;9.114;2022-09-20T00:23:24;7.20;99.90
1307;DHT22;646;48.696;9.114;2022-09-20T00:25:58;7.40;99.90
1307;DHT22;646;48.696;9.114;2022-09-20T00:28:24;7.40;99.90
1307;DHT22;646;48.696;9.114;2022-09-20T00:30:51;7.50;99.90
1307;DHT22;646;48.696;9.114;2022-09-20T00:33:17;7.40;99.90
1307;DHT22;646;48.696;9.114;2022-09-20T00:35:44;7.10;99.90
1307;DHT22;646;48.696;9.114;2022-09-20T00:38:09;7.30;99.90
1307;DHT22;646;48.696;9.114;2022-09-20T00:40:38;7.50;99.90
1307;DHT22;646;48.696;9.114;2022-09-20T00:43:03;7.50;99.90
1307;DHT22;646;48.696;9.114;2022-09-20T00:45:29;7.20;99.90
1307;DHT22;646;48.696;9.114;2022-09-20T00:48:15;7.50;99.90
1307;DHT22;646;48.696;9.114;2022-09-20T00:50:50;7.50;99.90
1307;DHT22;646;48.696;9.114;2022-09-20T00:53:19;7.50;99.90
1307;DHT22;646;48.696;9.114;2022-09-20T00:55:51;7.50;99.90
1307;DHT22;646;48.696;9.114;2022-09-20T00:58:19;7.00;99.90
1307;DHT22;646;48.696;9.114;2022-09-20T01:00:46;7.50;99.90
1307;DHT22;646;48.696;9.114;2022-09-20T01:03:14;7.50;99.90
1307;DHT22;646;48.696;9.114;2022-09-20T01:05:43;7.50;99.90
1307;DHT22;646;48.696;9.114;2022-09-20T01:08:10;7.40;99.90
1307;DHT22;646;48.696;9.114;2022-09-20T01:10:36;7.40;99.90
1307;DHT22;646;48.696;9.114;2022-09-20T01:13:01;7.50;99.90
1307;DHT22;646;48.696;9.114;2022-09-20T01:15:29;7.30;99.90
1307;DHT22;646;48.696;9.114;2022-09-20T01:17:57;7.20;99.90
1307;DHT22;646;48.696;9.114;2022-09-20T01:20:38;7.20;99.90
1307;DHT22;646;48.696;9.114;2022-09-20T01:23:17;7.30;99.90
1307;DHT22;646;48.696;9.114;2022-09-20T01:28:34;7.40;99.90
1307;DHT22;646;48.696;9.114;2022-09-20T01:33:51;7.40;99.90
1307;DHT22;646;48.696;9.114;2022-09-20T01:36:24;7.40;99.90
1307;DHT22;646;48.696;9.114;2022-09-20T01:41:34;7.40;99.90
1307;DHT22;646;48.696;9.114;2022-09-20T01:44:12;7.50;99.90
1307;DHT22;646;48.696;9.114;2022-09-20T01:46:42;7.40;99.90
1307;DHT22;646;48.696;9.114;2022-09-20T01:55:07;7.50;99.90
1307;DHT22;646;48.696;9.114;2022-09-20T01:57:56;7.50;99.90
1307;DHT22;646;48.696;9.114;2022-09-20T02:03:16;7.40;99.90
1307;DHT22;646;48.696;9.114;2022-09-20T02:06:02;7.20;99.90
1307;DHT22;646;48.696;9.114;2022-09-20T02:20:12;7.20;99.90
1307;DHT22;646;48.696;9.114;2022-09-20T02:23:11;7.00;99.90
1307;DHT22;646;48.696;9.114;2022-09-20T02:37:54;7.00;99.90
1307;DHT22;646;48.696;9.114;2022-09-20T02:40:39;7.20;99.90
1307;DHT22;646;48.696;9.114;2022-09-20T02:43:43;7.20;99.90
1307;DHT22;646;48.696;9.114;2022-09-20T02:46:34;7.20;99.90
1307;DHT22;646;48.696;9.114;2022-09-20T02:49:16;7.00;99.90
1307;DHT22;646;48.696;9.114;2022-09-20T02:51:55;7.10;99.90
1307;DHT22;646;48.696;9.114;2022-09-20T02:54:38;7.10;99.90
1307;DHT22;646;48.696;9.114;2022-09-20T02:59:43;7.10;99.90
1307;DHT22;646;48.696;9.114;2022-09-20T03:02:24;7.00;99.90
1307;DHT22;646;48.696;9.114;2022-09-20T03:16:33;7.20;99.90
1307;DHT22;646;48.696;9.114;2022-09-20T03:19:29;7.50;99.90
1307;DHT22;646;48.696;9.114;2022-09-20T03:27:30;7.50;99.90
1307;DHT22;646;48.696;9.114;2022-09-20T03:39:10;7.50;99.90
1307;DHT22;646;48.696;9.114;2022-09-20T03:48:10;7.30;99.90
1307;DHT22;646;48.696;9.114;2022-09-20T04:02:38;7.40;99.90
1307;DHT22;646;48.696;9.114;2022-09-20T04:08:22;7.40;99.90
1307;DHT22;646;48.696;9.114;2022-09-20T04:13:46;7.30;99.90
1307;DHT22;646;48.696;9.114;2022-09-20T04:19:42;7.40;99.90
1307;DHT22;646;48.696;9.114;2022-09-20T04:22:09;7.50;99.90
1307;DHT22;646;48.696;9.114;2022-09-20T04:27:42;7.40;99.90
1307;DHT22;646;48.696;9.114;2022-09-20T04:32:56;7.50;99.90
1307;DHT22;646;48.696;9.114;2022-09-20T04:38:31;7.60;99.90
1307;DHT22;646;48.696;9.114;2022-09-20T04:41:32;7.50;99.90
1307;DHT22;646;48.696;9.114;2022-09-20T04:44:37;7.70;99.90
1307;DHT22;646;48.696;9.114;2022-09-20T04:50:18;7.80;99.90
1307;DHT22;646;48.696;9.114;2022-09-20T05:12:24;8.00;99.90
1307;DHT22;646;48.696;9.114;2022-09-20T05:15:25;8.10;99.90
1307;DHT22;646;48.696;9.114;2022-09-20T05:24:22;8.10;99.90
1307;DHT22;646;48.696;9.114;2022-09-20T05:27:14;7.90;99.90
1307;DHT22;646;48.696;9.114;2022-09-20T05:29:55;7.90;99.90
1307;DHT22;646;48.696;9.114;2022-09-20T05:32:39;8.00;99.90
1307;DHT22;646;48.696;9.114;2022-09-20T05:35:25;8.00;99.90
1307;DHT22;646;48.696;9.114;2022-09-20T05:41:10;8.00;99.90
1307;DHT22;646;48.696;9.114;2022-09-20T05:43:58;8.30;99.90
1307;DHT22;646;48.696;9.114;2022-09-20T05:46:53;7.90;99.90
1307;DHT22;646;48.696;9.114;2022-09-20T06:01:07;8.50;99.90
1307;DHT22;646;48.696;9.114;2022-09-20T06:03:46;8.30;99.90
1307;DHT22;646;48.696;9.114;2022-09-20T06:06:28;8.90;99.90
1307;DHT22;646;48.696;9.114;2022-09-20T06:09:11;8.60;99.90
1307;DHT22;646;48.696;9.114;2022-09-20T06:11:47;8.90;99.90
1307;DHT22;646;48.696;9.114;2022-09-20T06:14:39;9.10;99.90
1307;DHT22;646;48.696;9.114;2022-09-20T06:17:27;8.90;99.90
1307;DHT22;646;48.696;9.114;2022-09-20T06:22:45;9.40;99.90
1307;DHT22;646;48.696;9.114;2022-09-20T06:25:24;9.60;99.90
1307;DHT22;646;48.696;9.114;2022-09-20T06:27:57;9.60;99.90
1307;DHT22;646;48.696;9.114;2022-09-20T06:30:33;9.70;99.90
1307;DHT22;646;48.696;9.114;2022-09-20T06:33:16;9.60;99.90
1307;DHT22;646;48.696;9.114;2022-09-20T06:36:01;9.80;99.90
1307;DHT22;646;48.696;9.114;2022-09-20T06:41:55;10.10;99.90
1307;DHT22;646;48.696;9.114;2022-09-20T06:44:22;10.40;99.90
1307;DHT22;646;48.696;9.114;2022-09-20T06:46:47;10.40;99.90
1307;DHT22;646;48.696;9.114;2022-09-20T06:49:13;10.70;99.90
1307;DHT22;646;48.696;9.114;2022-09-20T06:51:39;10.70;99.90
1307;DHT22;646;48.696;9.114;2022-09-20T06:54:05;10.70;99.90
1307;DHT22;646;48.696;9.114;2022-09-20T06:56:33;10.80;99.90
1307;DHT22;646;48.696;9.114;2022-09-20T06:59:02;10.90;99.90
1307;DHT22;646;48.696;9.114;2022-09-20T07:01:27;11.20;99.90
1307;DHT22;646;48.696;9.114;2022-09-20T07:03:53;11.10;99.90
1307;DHT22;646;48.696;9.114;2022-09-20T07:06:18;11.40;99.90
1307;DHT22;646;48.696;9.114;2022-09-20T07:08:45;11.40;99.90
1307;DHT22;646;48.696;9.114;2022-09-20T07:11:14;11.50;99.90
1307;DHT22;646;48.696;9.114;2022-09-20T07:13:43;11.40;99.90
1307;DHT22;646;48.696;9.114;2022-09-20T07:16:12;11.50;99.90
1307;DHT22;646;48.696;9.114;2022-09-20T07:18:40;11.40;99.90
1307;DHT22;646;48.696;9.114;2022-09-20T07:21:11;11.30;99.90
1307;DHT22;646;48.696;9.114;2022-09-20T07:23:37;11.40;99.90
1307;DHT22;646;48.696;9.114;2022-09-20T07:26:03;11.50;99.90
1307;DHT22;646;48.696;9.114;2022-09-20T07:28:31;11.40;99.90
1307;DHT22;646;48.696;9.114;2022-09-20T07:30:57;11.30;99.90
1307;DHT22;646;48.696;9.114;2022-09-20T07:33:22;11.40;99.90
1307;DHT22;646;48.696;9.114;2022-09-20T07:35:50;11.30;99.90
1307;DHT22;646;48.696;9.114;2022-09-20T07:38:17;11.30;99.90
1307;DHT22;646;48.696;9.114;2022-09-20T07:40:43;11.20;99.90
1307;DHT22;646;48.696;9.114;2022-09-20T07:43:10;11.30;99.90
1307;DHT22;646;48.696;9.114;2022-09-20T07:45:36;11.10;99.90
1307;DHT22;646;48.696;9.114;2022-09-20T07:48:05;11.20;99.90
1307;DHT22;646;48.696;9.114;2022-09-20T07:50:32;11.20;99.90
1307;DHT22;646;48.696;9.114;2022-09-20T07:52:58;11.20;99.90
1307;DHT22;646;48.696;9.114;2022-09-20T07:55:23;11.30;99.90
1307;DHT22;646;48.696;9.114;2022-09-20T07:57:49;11.20;99.90
1307;DHT22;646;48.696;9.114;2022-09-20T08:00:16;10.90;99.90
1307;DHT22;646;48.696;9.114;2022-09-20T08:02:42;11.60;99.90
1307;DHT22;646;48.696;9.114;2022-09-20T08:05:10;11.80;99.90
1307;DHT22;646;48.696;9.114;2022-09-20T08:07:36;11.60;99.90
1307;DHT22;646;48.696;9.114;2022-09-20T08:10:02;12.20;99.90
1307;DHT22;646;48.696;9.114;2022-09-20T08:12:27;12.00;99.90
1307;DHT22;646;48.696;9.114;2022-09-20T08:14:53;12.50;99.90
1307;DHT22;646;48.696;9.114;2022-09-20T08:17:19;12.20;99.90
1307;DHT22;646;48.696;9.114;2022-09-20T08:19:45;12.10;99.90
1307;DHT22;646;48.696;9.114;2022-09-20T08:22:10;12.30;99.90
1307;DHT22;646;48.696;9.114;2022-09-20T08:24:37;12.30;99.90
1307;DHT22;646;48.696;9.114;2022-09-20T08:27:02;12.60;99.90
1307;DHT22;646;48.696;9.114;2022-09-20T08:29:28;12.80;99.90
1307;DHT22;646;48.696;9.114;2022-09-20T08:31:54;12.80;99.90
1307;DHT22;646;48.696;9.114;2022-09-20T08:34:23;14.10;99.90
1307;DHT22;646;48.696;9.114;2022-09-20T08:36:49;14.20;99.90
1307;DHT22;646;48.696;9.114;2022-09-20T08:39:17;14.40;99.90
1307;DHT22;646;48.696;9.114;2022-09-20T08:41:53;14.70;99.90
1307;DHT22;646;48.696;9.114;2022-09-20T08:44:27;14.70;99.90
1307;DHT22;646;48.696;9.114;2022-09-20T08:47:06;15.20;99.90
1307;DHT22;646;48.696;9.114;2022-09-20T08:49:34;16.00;99.90
1307;DHT22;646;48.696;9.114;2022-09-20T08:52:01;16.40;99.90
1307;DHT22;646;48.696;9.114;2022-09-20T08:54:31;17.50;99.90
1307;DHT22;646;48.696;9.114;2022-09-20T08:57:00;18.90;99.90
1307;DHT22;646;48.696;9.114;2022-09-20T08:59:30;20.30;94.80
1307;DHT22;646;48.696;9.114;2022-09-20T09:01:56;21.70;90.50
1307;DHT22;646;48.696;9.114;2022-09-20T09:04:27;22.50;90.10
1307;DHT22;646;48.696;9.114;2022-09-20T09:06:55;23.00;74.60
1307;DHT22;646;48.696;9.114;2022-09-20T09:09:25;22.80;71.30
1307;DHT22;646;48.696;9.114;2022-09-20T09:11:54;22.30;71.80
1307;DHT22;646;48.696;9.114;2022-09-20T09:14:24;22.30;72.80
1307;DHT22;646;48.696;9.114;2022-09-20T09:17:10;21.00;70.00
1307;DHT22;646;48.696;9.114;2022-09-20T09:22:40;19.60;65.50
1307;DHT22;646;48.696;9.114;2022-09-20T09:25:28;19.30;69.10
1307;DHT22;646;48.696;9.114;2022-09-20T09:30:36;19.10;78.30
1307;DHT22;646;48.696;9.114;2022-09-20T09:33:25;19.40;81.60
1307;DHT22;646;48.696;9.114;2022-09-20T09:38:31;20.60;74.50
1307;DHT22;646;48.696;9.114;2022-09-20T09:41:00;20.80;74.80
1307;DHT22;646;48.696;9.114;2022-09-20T09:43:30;21.10;74.00
1307;DHT22;646;48.696;9.114;2022-09-20T09:46:20;22.30;75.60
1307;DHT22;646;48.696;9.114;2022-09-20T09:48:47;24.50;75.00
1307;DHT22;646;48.696;9.114;2022-09-20T09:51:29;27.00;59.40
1307;DHT22;646;48.696;9.114;2022-09-20T09:53:56;28.90;56.80
1307;DHT22;646;48.696;9.114;2022-09-20T10:13:06;28.70;45.60
1307;DHT22;646;48.696;9.114;2022-09-20T10:18:19;26.00;38.20
1307;DHT22;646;48.696;9.114;2022-09-20T10:21:00;25.10;44.50
1307;DHT22;646;48.696;9.114;2022-09-20T10:23:48;23.60;45.90
1307;DHT22;646;48.696;9.114;2022-09-20T10:27:06;23.70;48.30
1307;DHT22;646;48.696;9.114;2022-09-20T10:29:51;24.30;52.80
1307;DHT22;646;48.696;9.114;2022-09-20T10:32:54;24.40;49.80
1307;DHT22;646;48.696;9.114;2022-09-20T10:35:25;23.70;42.50
1307;DHT22;646;48.696;9.114;2022-09-20T10:44:30;21.00;56.50
1307;DHT22;646;48.696;9.114;2022-09-20T10:55:02;21.20;63.30
1307;DHT22;646;48.696;9.114;2022-09-20T10:58:02;22.60;62.80
1307;DHT22;646;48.696;9.114;2022-09-20T11:06:20;22.30;55.50
1307;DHT22;646;48.696;9.114;2022-09-20T11:08:51;22.20;56.60
1307;DHT22;646;48.696;9.114;2022-09-20T11:11:29;22.90;60.30
1307;DHT22;646;48.696;9.114;2022-09-20T11:14:09;23.60;61.30
1307;DHT22;646;48.696;9.114;2022-09-20T11:17:14;25.30;62.00
1307;DHT22;646;48.696;9.114;2022-09-20T11:25:05;27.40;52.50
1307;DHT22;646;48.696;9.114;2022-09-20T11:28:00;27.50;50.70
1307;DHT22;646;48.696;9.114;2022-09-20T11:30:28;27.20;51.70
1307;DHT22;646;48.696;9.114;2022-09-20T11:33:16;28.00;53.50
1307;DHT22;646;48.696;9.114;2022-09-20T11:35:50;29.20;51.80
1307;DHT22;646;48.696;9.114;2022-09-20T11:41:03;32.40;41.50
1307;DHT22;646;48.696;9.114;2022-09-20T11:43:31;31.90;44.70
1307;DHT22;646;48.696;9.114;2022-09-20T11:46:00;30.70;41.70
1307;DHT22;646;48.696;9.114;2022-09-20T11:48:35;29.30;41.80
1307;DHT22;646;48.696;9.114;2022-09-20T11:51:30;27.90;34.10
1307;DHT22;646;48.696;9.114;2022-09-20T11:56:37;25.60;49.30
1307;DHT22;646;48.696;9.114;2022-09-20T11:59:05;25.50;51.60
1307;DHT22;646;48.696;9.114;2022-09-20T12:01:37;24.90;48.00
1307;DHT22;646;48.696;9.114;2022-09-20T12:04:25;24.00;43.00
1307;DHT22;646;48.696;9.114;2022-09-20T12:07:13;22.90;44.00
1307;DHT22;646;48.696;9.114;2022-09-20T12:09:43;22.00;48.50
1307;DHT22;646;48.696;9.114;2022-09-20T12:12:54;20.90;48.90
1307;DHT22;646;48.696;9.114;2022-09-20T12:26:07;20.50;56.90
1307;DHT22;646;48.696;9.114;2022-09-20T12:28:40;20.70;56.90
1307;DHT22;646;48.696;9.114;2022-09-20T12:34:03;22.10;59.10
1307;DHT22;646;48.696;9.114;2022-09-20T12:36:35;23.90;63.90
1307;DHT22;646;48.696;9.114;2022-09-20T12:39:15;24.30;59.80
1307;DHT22;646;48.696;9.114;2022-09-20T12:41:51;23.90;57.40
1307;DHT22;646;48.696;9.114;2022-09-20T12:44:43;24.00;44.40
1307;DHT22;646;48.696;9.114;2022-09-20T12:47:24;23.60;53.30
1307;DHT22;646;48.696;9.114;2022-09-20T12:49:53;23.10;55.10
1307;DHT22;646;48.696;9.114;2022-09-20T12:52:56;23.40;53.60
1307;DHT22;646;48.696;9.114;2022-09-20T12:55:53;24.10;41.10
1307;DHT22;646;48.696;9.114;2022-09-20T13:03:38;30.00;49.30
1307;DHT22;646;48.696;9.114;2022-09-20T13:11:46;34.00;33.40
1307;DHT22;646;48.696;9.114;2022-09-20T13:14:19;34.40;31.00
1307;DHT22;646;48.696;9.114;2022-09-20T13:16:51;34.90;27.40
1307;DHT22;646;48.696;9.114;2022-09-20T13:19:41;35.20;29.70
1307;DHT22;646;48.696;9.114;2022-09-20T13:24:49;34.50;28.10
1307;DHT22;646;48.696;9.114;2022-09-20T13:27:29;33.50;23.70
1307;DHT22;646;48.696;9.114;2022-09-20T13:30:16;31.70;25.40
1307;DHT22;646;48.696;9.114;2022-09-20T13:32:42;30.00;26.90
1307;DHT22;646;48.696;9.114;2022-09-20T13:40:25;26.20;33.90
1307;DHT22;646;48.696;9.114;2022-09-20T13:43:00;25.00;35.60
1307;DHT22;646;48.696;9.114;2022-09-20T13:45:26;23.50;36.60
1307;DHT22;646;48.696;9.114;2022-09-20T13:47:54;23.20;37.30
1307;DHT22;646;48.696;9.114;2022-09-20T13:50:32;22.60;40.10
1307;DHT22;646;48.696;9.114;2022-09-20T13:53:01;21.70;41.90
1307;DHT22;646;48.696;9.114;2022-09-20T13:55:33;21.50;43.30
1307;DHT22;646;48.696;9.114;2022-09-20T13:58:03;21.00;40.80
1307;DHT22;646;48.696;9.114;2022-09-20T14:00:31;20.40;41.10
1307;DHT22;646;48.696;9.114;2022-09-20T14:02:57;20.40;43.30
1307;DHT22;646;48.696;9.114;2022-09-20T14:05:25;19.80;43.20
1307;DHT22;646;48.696;9.114;2022-09-20T14:07:52;19.40;42.80
1307;DHT22;646;48.696;9.114;2022-09-20T14:10:35;18.70;43.60
1307;DHT22;646;48.696;9.114;2022-09-20T14:13:04;18.40;45.70
1307;DHT22;646;48.696;9.114;2022-09-20T14:15:39;17.90;45.80
1307;DHT22;646;48.696;9.114;2022-09-20T14:18:08;17.70;47.70
1307;DHT22;646;48.696;9.114;2022-09-20T14:20:36;17.20;48.70
1307;DHT22;646;48.696;9.114;2022-09-20T14:23:02;17.00;49.00
1307;DHT22;646;48.696;9.114;2022-09-20T14:25:28;16.60;49.50
1307;DHT22;646;48.696;9.114;2022-09-20T14:28:17;16.70;51.00
1307;DHT22;646;48.696;9.114;2022-09-20T14:30:44;16.20;52.40
1307;DHT22;646;48.696;9.114;2022-09-20T14:33:16;16.00;53.40
1307;DHT22;646;48.696;9.114;2022-09-20T14:35:47;16.00;54.80
1307;DHT22;646;48.696;9.114;2022-09-20T14:38:14;15.80;55.60
1307;DHT22;646;48.696;9.114;2022-09-20T14:40:41;15.70;55.80
1307;DHT22;646;48.696;9.114;2022-09-20T14:43:37;15.70;56.80
1307;DHT22;646;48.696;9.114;2022-09-20T14:46:10;15.30;57.10
1307;DHT22;646;48.696;9.114;2022-09-20T14:48:39;15.10;57.90
1307;DHT22;646;48.696;9.114;2022-09-20T14:53:45;15.30;58.70
1307;DHT22;646;48.696;9.114;2022-09-20T14:56:14;15.00;59.20
1307;DHT22;646;48.696;9.114;2022-09-20T14:59:03;15.20;59.90
1307;DHT22;646;48.696;9.114;2022-09-20T15:01:29;15.30;60.10
1307;DHT22;646;48.696;9.114;2022-09-20T15:03:56;15.50;60.40
1307;DHT22;646;48.696;9.114;2022-09-20T15:06:21;15.20;59.10
1307;DHT22;646;48.696;9.114;2022-09-20T15:08:47;15.50;59.70
1307;DHT22;646;48.696;9.114;2022-09-20T15:11:17;15.70;60.50
1307;DHT22;646;48.696;9.114;2022-09-20T15:13:43;16.10;60.30
1307;DHT22;646;48.696;9.114;2022-09-20T15:16:13;16.50;60.40
1307;DHT22;646;48.696;9.114;2022-09-20T15:18:41;16.90;59.20
1307;DHT22;646;48.696;9.114;2022-09-20T15:21:08;17.10;58.20
1307;DHT22;646;48.696;9.114;2022-09-20T15:23:37;17.40;55.80
1307;DHT22;646;48.696;9.114;2022-09-20T15:26:04;17.80;56.50
1307;DHT22;646;48.696;9.114;2022-09-20T15:28:31;19.50;54.00
1307;DHT22;646;48.696;9.114;2022-09-20T15:30:58;20.40;51.40
1307;DHT22;646;48.696;9.114;2022-09-20T15:33:23;20.60;48.30
1307;DHT22;646;48.696;9.114;2022-09-20T15:35:49;20.30;46.50
1307;DHT22;646;48.696;9.114;2022-09-20T15:38:17;20.00;46.00
1307;DHT22;646;48.696;9.114;2022-09-20T15:40:45;19.30;47.00
1307;DHT22;646;48.696;9.114;2022-09-20T15:43:13;18.50;47.90
1307;DHT22;646;48.696;9.114;2022-09-20T15:48:15;17.40;49.20
1307;DHT22;646;48.696;9.114;2022-09-20T15:50:41;16.70;49.30
1307;DHT22;646;48.696;9.114;2022-09-20T15:53:07;16.90;50.10
1307;DHT22;646;48.696;9.114;2022-09-20T15:55:35;16.50;51.00
1307;DHT22;646;48.696;9.114;2022-09-20T15:58:01;16.40;51.90
1307;DHT22;646;48.696;9.114;2022-09-20T16:00:28;16.00;52.10
1307;DHT22;646;48.696;9.114;2022-09-20T16:02:53;15.60;52.70
1307;DHT22;646;48.696;9.114;2022-09-20T16:05:19;15.70;53.60
1307;DHT22;646;48.696;9.114;2022-09-20T16:07:44;15.60;54.40
1307;DHT22;646;48.696;9.114;2022-09-20T16:10:10;15.20;54.70
1307;DHT22;646;48.696;9.114;2022-09-20T16:12:36;15.30;55.30
1307;DHT22;646;48.696;9.114;2022-09-20T16:15:01;15.60;54.60
1307;DHT22;646;48.696;9.114;2022-09-20T16:17:27;15.10;54.60
1307;DHT22;646;48.696;9.114;2022-09-20T16:20:11;15.10;55.00
1307;DHT22;646;48.696;9.114;2022-09-20T16:22:36;14.90;55.70
1307;DHT22;646;48.696;9.114;2022-09-20T16:25:02;14.70;56.00
1307;DHT22;646;48.696;9.114;2022-09-20T16:27:30;14.60;55.70
1307;DHT22;646;48.696;9.114;2022-09-20T16:30:00;14.30;56.20
1307;DHT22;646;48.696;9.114;2022-09-20T16:32:25;13.90;57.20
1307;DHT22;646;48.696;9.114;2022-09-20T16:34:51;14.10;58.50
1307;DHT22;646;48.696;9.114;2022-09-20T16:37:19;13.70;58.90
1307;DHT22;646;48.696;9.114;2022-09-20T16:39:44;13.60;60.60
1307;DHT22;646;48.696;9.114;2022-09-20T16:42:10;13.40;61.00
1307;DHT22;646;48.696;9.114;2022-09-20T16:44:39;13.30;62.40
1307;DHT22;646;48.696;9.114;2022-09-20T16:47:08;12.90;64.10
1307;DHT22;646;48.696;9.114;2022-09-20T16:49:35;13.10;65.60
1307;DHT22;646;48.696;9.114;2022-09-20T16:52:03;12.80;67.60
1307;DHT22;646;48.696;9.114;2022-09-20T16:54:29;12.70;68.10
1307;DHT22;646;48.696;9.114;2022-09-20T16:56:54;12.60;69.20
1307;DHT22;646;48.696;9.114;2022-09-20T16:59:20;12.50;70.10
1307;DHT22;646;48.696;9.114;2022-09-20T17:01:46;12.30;70.40
1307;DHT22;646;48.696;9.114;2022-09-20T17:04:13;12.10;71.60
1307;DHT22;646;48.696;9.114;2022-09-20T17:06:39;12.20;72.00
1307;DHT22;646;48.696;9.114;2022-09-20T17:09:06;12.10;73.90
1307;DHT22;646;48.696;9.114;2022-09-20T17:11:43;12.10;75.00
1307;DHT22;646;48.696;9.114;2022-09-20T17:14:10;11.80;75.70
1307;DHT22;646;48.696;9.114;2022-09-20T17:16:38;11.90;76.90
1307;DHT22;646;48.696;9.114;2022-09-20T17:19:09;12.10;77.50
1307;DHT22;646;48.696;9.114;2022-09-20T17:21:38;11.70;78.30
1307;DHT22;646;48.696;9.114;2022-09-20T17:24:04;11.90;79.10
1307;DHT22;646;48.696;9.114;2022-09-20T17:26:33;11.80;80.60
1307;DHT22;646;48.696;9.114;2022-09-20T17:29:00;11.60;82.00
1307;DHT22;646;48.696;9.114;2022-09-20T17:31:31;11.70;82.70
1307;DHT22;646;48.696;9.114;2022-09-20T17:33:58;11.60;85.30
1307;DHT22;646;48.696;9.114;2022-09-20T17:36:32;11.40;87.10
1307;DHT22;646;48.696;9.114;2022-09-20T17:38:59;11.20;87.40
1307;DHT22;646;48.696;9.114;2022-09-20T17:41:26;11.20;89.00
1307;DHT22;646;48.696;9.114;2022-09-20T17:43:55;11.10;89.90
1307;DHT22;646;48.696;9.114;2022-09-20T17:46:26;11.10;90.10
1307;DHT22;646;48.696;9.114;2022-09-20T17:48:55;11.30;90.90
1307;DHT22;646;48.696;9.114;2022-09-20T17:51:26;11.20;91.50
1307;DHT22;646;48.696;9.114;2022-09-20T17:53:52;11.10;92.40
1307;DHT22;646;48.696;9.114;2022-09-20T17:56:20;10.70;92.70
1307;DHT22;646;48.696;9.114;2022-09-20T17:58:48;11.00;93.80
1307;DHT22;646;48.696;9.114;2022-09-20T18:01:18;11.00;94.90
1307;DHT22;646;48.696;9.114;2022-09-20T18:03:46;10.90;95.30
1307;DHT22;646;48.696;9.114;2022-09-20T18:06:16;10.60;95.70
1307;DHT22;646;48.696;9.114;2022-09-20T18:09:09;10.70;97.00
1307;DHT22;646;48.696;9.114;2022-09-20T18:11:46;11.00;98.10
1307;DHT22;646;48.696;9.114;2022-09-20T18:14:14;10.80;98.80
1307;DHT22;646;48.696;9.114;2022-09-20T18:16:40;11.00;98.90
1307;DHT22;646;48.696;9.114;2022-09-20T18:19:07;10.90;99.50
1307;DHT22;646;48.696;9.114;2022-09-20T18:21:34;10.90;99.90
1307;DHT22;646;48.696;9.114;2022-09-20T18:24:01;10.60;99.90
1307;DHT22;646;48.696;9.114;2022-09-20T18:26:30;10.60;99.90
1307;DHT22;646;48.696;9.114;2022-09-20T18:29:01;10.60;99.90
1307;DHT22;646;48.696;9.114;2022-09-20T18:31:48;10.70;99.90
1307;DHT22;646;48.696;9.114;2022-09-20T18:34:17;10.70;99.90
1307;DHT22;646;48.696;9.114;2022-09-20T18:36:44;10.60;99.90
1307;DHT22;646;48.696;9.114;2022-09-20T18:39:12;10.40;99.90
1307;DHT22;646;48.696;9.114;2022-09-20T18:41:38;10.70;99.90
1307;DHT22;646;48.696;9.114;2022-09-20T18:44:05;10.20;99.90
1307;DHT22;646;48.696;9.114;2022-09-20T18:46:32;10.40;99.90
1307;DHT22;646;48.696;9.114;2022-09-20T18:49:00;10.20;99.90
1307;DHT22;646;48.696;9.114;2022-09-20T18:51:28;10.60;99.90
1307;DHT22;646;48.696;9.114;2022-09-20T18:53:55;10.50;99.90
1307;DHT22;646;48.696;9.114;2022-09-20T18:56:32;10.30;99.90
1307;DHT22;646;48.696;9.114;2022-09-20T18:59:02;10.20;99.90
1307;DHT22;646;48.696;9.114;2022-09-20T19:13:10;10.10;99.90
1307;DHT22;646;48.696;9.114;2022-09-20T19:24:21;9.70;99.90
1307;DHT22;646;48.696;9.114;2022-09-20T19:26:49;9.70;99.90
1307;DHT22;646;48.696;9.114;2022-09-20T19:29:23;9.80;99.90
1307;DHT22;646;48.696;9.114;2022-09-20T19:31:52;9.70;99.90
1307;DHT22;646;48.696;9.114;2022-09-20T19:34:29;9.80;99.90
1307;DHT22;646;48.696;9.114;2022-09-20T19:37:55;10.10;99.90
1307;DHT22;646;48.696;9.114;2022-09-20T19:40:38;9.90;99.90
1307;DHT22;646;48.696;9.114;2022-09-20T19:49:14;9.90;99.90
1307;DHT22;646;48.696;9.114;2022-09-20T19:51:41;10.00;99.90
1307;DHT22;646;48.696;9.114;2022-09-20T19:54:12;9.70;99.90
1307;DHT22;646;48.696;9.114;2022-09-20T19:57:06;9.70;99.90
1307;DHT22;646;48.696;9.114;2022-09-20T19:59:34;9.70;99.90
1307;DHT22;646;48.696;9.114;2022-09-20T20:02:00;9.70;99.90
1307;DHT22;646;48.696;9.114;2022-09-20T20:04:26;9.70;99.90
1307;DHT22;646;48.696;9.114;2022-09-20T20:07:03;9.50;99.90
1307;DHT22;646;48.696;9.114;2022-09-20T20:09:54;9.40;99.90
1307;DHT22;646;48.696;9.114;2022-09-20T20:12:43;9.70;99.90
1307;DHT22;646;48.696;9.114;2022-09-20T20:15:42;9.50;99.90
1307;DHT22;646;48.696;9.114;2022-09-20T20:20:49;9.30;99.90
1307;DHT22;646;48.696;9.114;2022-09-20T20:26:11;9.70;99.90
1307;DHT22;646;48.696;9.114;2022-09-20T20:28:41;9.40;99.90
1307;DHT22;646;48.696;9.114;2022-09-20T20:31:06;9.30;99.90
1307;DHT22;646;48.696;9.114;2022-09-20T20:33:36;9.30;99.90
1307;DHT22;646;48.696;9.114;2022-09-20T20:36:02;9.30;99.90
1307;DHT22;646;48.696;9.114;2022-09-20T20:38:28;9.40;99.90
1307;DHT22;646;48.696;9.114;2022-09-20T20:41:03;9.20;99.90
1307;DHT22;646;48.696;9.114;2022-09-20T20:43:34;9.20;99.90
1307;DHT22;646;48.696;9.114;2022-09-20T20:46:01;9.00;99.90
1307;DHT22;646;48.696;9.114;2022-09-20T20:48:26;9.20;99.90
1307;DHT22;646;48.696;9.114;2022-09-20T20:51:10;9.10;99.90
1307;DHT22;646;48.696;9.114;2022-09-20T20:53:40;9.00;99.90
1307;DHT22;646;48.696;9.114;2022-09-20T20:56:12;9.00;99.90
1307;DHT22;646;48.696;9.114;2022-09-20T20:58:40;8.80;99.90
1307;DHT22;646;48.696;9.114;2022-09-20T21:01:17;9.00;99.90
1307;DHT22;646;48.696;9.114;2022-09-20T21:03:46;9.10;99.90
1307;DHT22;646;48.696;9.114;2022-09-20T21:06:11;9.10;99.90
1307;DHT22;646;48.696;9.114;2022-09-20T21:08:40;8.90;99.90
1307;DHT22;646;48.696;9.114;2022-09-20T21:11:08;8.70;99.90
1307;DHT22;646;48.696;9.114;2022-09-20T21:13:34;8.80;99.90
1307;DHT22;646;48.696;9.114;2022-09-20T21:16:05;8.70;99.90
1307;DHT22;646;48.696;9.114;2022-09-20T21:18:32;8.50;99.90
1307;DHT22;646;48.696;9.114;2022-09-20T21:20:59;8.70;99.90
1307;DHT22;646;48.696;9.114;2022-09-20T21:23:24;8.70;99.90
1307;DHT22;646;48.696;9.114;2022-09-20T21:26:04;8.60;99.90
1307;DHT22;646;48.696;9.114;2022-09-20T21:28:37;8.60;99.90
1307;DHT22;646;48.696;9.114;2022-09-20T21:31:04;8.80;99.90
1307;DHT22;646;48.696;9.114;2022-09-20T21:33:35;8.60;99.90
1307;DHT22;646;48.696;9.114;2022-09-20T21:36:01;8.70;99.90
1307;DHT22;646;48.696;9.114;2022-09-20T21:38:28;8.50;99.90
1307;DHT22;646;48.696;9.114;2022-09-20T21:41:21;8.40;99.90
1307;DHT22;646;48.696;9.114;2022-09-20T21:43:48;8.60;99.90
1307;DHT22;646;48.696;9.114;2022-09-20T21:46:18;8.50;99.90